»·PEaware :: AAL522 KSFO-KSNA

AAL522 :: KSFO-KSNA

FLIGHT INFORMATION

Flight Status: Arrived
Operator:
American Airlines
More flights by this operator :: More flights under this callsign
Pilot: Merv A. (1555)
Aircraft: AIRBUS A319
(A319)
More flights by this aircraft type
Origin: KSFO San Francisco Intl
United States
Destination: KSNA John Wayne-Orange Co
United States
More flights between these airports :: More routes between these airports
Route: OFFSH2 MCKEY TILLT TILLT2
File this flight plan on PilotEdge
Remarks: RMK / SIMBRIEF
Altitude:
(Current/Filed)
35,000ft
Speed:
(Current/Filed)
448kts
Departed: 07-Apr-21 03:27 PM
Arrived: 07-Apr-21 04:33 PM
Distance/Time
Traveled:
323nm/1:06
Distance/Time
To Go:
Arrived

Flight Plot

Page will automatically refresh every two minutes.

Flight plan parsing failed; only flown route is shown


Map Options




Map Legend


Flown Route
Filed Route
Departure Airport
Arrival Airport
Navaid (VOR, NDB)
Fix

Horizontal Profiles

Position Reports

Time Latitude Longitude Heading Altitude Ground
Speed
07-Apr-21 14:40 37.617115 -122.380340 276 27ft 0kts
07-Apr-21 14:41 37.617115 -122.380340 276 27ft 0kts
07-Apr-21 14:42 37.617115 -122.380340 276 27ft 0kts
07-Apr-21 14:43 37.617115 -122.380340 276 27ft 0kts
07-Apr-21 14:44 37.617115 -122.380340 276 27ft 0kts
07-Apr-21 14:45 37.617115 -122.380340 276 27ft 0kts
07-Apr-21 14:46 37.617115 -122.380340 276 27ft 0kts
07-Apr-21 14:47 37.617115 -122.380340 276 27ft 0kts
07-Apr-21 14:48 37.617115 -122.380340 276 27ft 0kts
07-Apr-21 14:49 37.617115 -122.380340 276 27ft 0kts
07-Apr-21 14:50 37.617115 -122.380340 276 27ft 0kts
07-Apr-21 14:51 37.617115 -122.380340 276 27ft 0kts
07-Apr-21 14:52 37.617115 -122.380340 276 27ft 0kts
07-Apr-21 14:53 37.617115 -122.380340 276 27ft 0kts
07-Apr-21 14:54 37.617115 -122.380340 276 27ft 0kts
07-Apr-21 14:55 37.617115 -122.380340 276 27ft 0kts
07-Apr-21 14:56 37.617115 -122.380340 276 27ft 0kts
07-Apr-21 14:57 37.617115 -122.380340 276 27ft 0kts
07-Apr-21 14:58 37.617115 -122.380340 276 27ft 0kts
07-Apr-21 14:59 37.617115 -122.380340 276 27ft 0kts
07-Apr-21 15:00 37.617115 -122.380340 276 27ft 0kts
07-Apr-21 15:01 37.617115 -122.380340 276 27ft 0kts
07-Apr-21 15:02 37.617115 -122.380340 276 27ft 0kts
07-Apr-21 15:03 37.617115 -122.380340 276 27ft 0kts
07-Apr-21 15:04 37.617115 -122.380340 276 27ft 0kts
07-Apr-21 15:05 37.617115 -122.380340 276 27ft 0kts
07-Apr-21 15:06 37.617115 -122.380340 276 27ft 0kts
07-Apr-21 15:07 37.617115 -122.380340 276 27ft 0kts
07-Apr-21 15:08 37.617115 -122.380340 276 27ft 0kts
07-Apr-21 15:09 37.617115 -122.380340 276 27ft 0kts
07-Apr-21 15:10 37.617115 -122.380340 276 27ft 0kts
07-Apr-21 15:11 37.617115 -122.380340 276 27ft 0kts
07-Apr-21 15:12 37.617115 -122.380340 276 27ft 0kts
07-Apr-21 15:13 37.617115 -122.380340 276 27ft 0kts
07-Apr-21 15:15 37.617171 -122.379875 237 27ft 2kts
07-Apr-21 15:16 37.617714 -122.379456 173 27ft 0kts
07-Apr-21 15:17 37.617714 -122.379456 173 27ft 0kts
07-Apr-21 15:18 37.617713 -122.379456 173 27ft 0kts
07-Apr-21 15:19 37.617518 -122.379427 173 27ft 5kts
07-Apr-21 15:20 37.615220 -122.380590 208 27ft 11kts
07-Apr-21 15:21 37.612301 -122.382497 207 27ft 10kts
07-Apr-21 15:22 37.610271 -122.383884 208 27ft 7kts
07-Apr-21 15:23 37.609378 -122.383364 118 27ft 0kts
07-Apr-21 15:24 37.609378 -122.383363 118 27ft 0kts
07-Apr-21 15:25 37.609376 -122.383360 118 27ft 0kts
07-Apr-21 15:26 37.609325 -122.381983 29 27ft 0kts
07-Apr-21 15:27 37.632546 -122.366342 14 1030ft 163kts
07-Apr-21 15:28 37.680670 -122.364200 1 3495ft 203kts
07-Apr-21 15:29 37.726780 -122.401697 274 6432ft 231kts
07-Apr-21 15:30 37.685736 -122.465227 215 9329ft 276kts
07-Apr-21 15:31 37.619594 -122.526170 219 12138ft 317kts
07-Apr-21 15:32 37.547000 -122.592915 219 15437ft 329kts
07-Apr-21 15:33 37.471442 -122.662156 217 18406ft 342kts
07-Apr-21 15:34 37.376338 -122.682686 173 21066ft 377kts
07-Apr-21 15:35 37.272742 -122.652448 174 23420ft 386kts
07-Apr-21 15:36 37.166148 -122.624551 174 25478ft 397kts
07-Apr-21 15:36 37.074676 -122.600918 174 27023ft 406kts
07-Apr-21 15:38 36.943268 -122.566821 175 29060ft 419kts
07-Apr-21 15:39 36.829533 -122.537102 176 31326ft 414kts
07-Apr-21 15:40 36.718398 -122.508355 177 33717ft 401kts
07-Apr-21 15:41 36.609824 -122.480351 178 35314ft 402kts
07-Apr-21 15:42 36.497819 -122.451448 177 35307ft 419kts
07-Apr-21 15:42 36.404759 -122.406712 149 35299ft 461kts
07-Apr-21 15:43 36.320398 -122.282082 138 35310ft 475kts
07-Apr-21 15:45 36.220320 -122.138456 139 35327ft 470kts
07-Apr-21 15:46 36.135849 -122.015166 140 35248ft 466kts
07-Apr-21 15:46 36.065453 -121.913705 139 35234ft 467kts
07-Apr-21 15:47 35.980704 -121.791664 140 35224ft 470kts
07-Apr-21 15:48 35.895737 -121.669581 140 35287ft 470kts
07-Apr-21 15:49 35.809822 -121.546823 140 35248ft 472kts
07-Apr-21 15:50 35.724275 -121.424855 139 35222ft 471kts
07-Apr-21 15:51 35.638452 -121.303157 139 35142ft 472kts
07-Apr-21 15:52 35.556067 -121.186401 139 35140ft 474kts
07-Apr-21 15:53 35.473700 -121.059362 124 35357ft 492kts
07-Apr-21 15:55 35.380622 -120.920382 149 36948ft 462kts
07-Apr-21 15:55 35.298638 -120.834883 147 37198ft 467kts
07-Apr-21 15:56 35.206382 -120.734262 148 37210ft 465kts
07-Apr-21 15:57 35.113470 -120.635088 147 37252ft 468kts
07-Apr-21 15:58 35.022594 -120.542842 155 37266ft 457kts
07-Apr-21 15:59 34.915423 -120.457313 155 36148ft 458kts
07-Apr-21 16:00 34.813886 -120.374775 155 37216ft 457kts
07-Apr-21 16:01 34.707887 -120.289585 155 37207ft 457kts
07-Apr-21 16:02 34.601401 -120.204145 155 37194ft 457kts
07-Apr-21 16:03 34.494993 -120.119395 155 37179ft 456kts
07-Apr-21 16:04 34.390141 -120.035739 155 35623ft 450kts
07-Apr-21 16:05 34.285105 -119.952577 155 33163ft 451kts
07-Apr-21 16:06 34.180850 -119.869972 154 30887ft 445kts
07-Apr-21 16:07 34.079712 -119.786161 143 28693ft 447kts
07-Apr-21 16:08 34.011681 -119.659034 124 26531ft 451kts
07-Apr-21 16:09 33.952130 -119.540928 125 24566ft 439kts
07-Apr-21 16:10 33.889352 -119.416313 124 22527ft 429kts
07-Apr-21 16:11 33.829526 -119.294245 124 20660ft 418kts
07-Apr-21 16:12 33.771059 -119.176163 125 18831ft 407kts
07-Apr-21 16:13 33.713964 -119.060840 125 17141ft 397kts
07-Apr-21 16:14 33.657917 -118.948034 124 15565ft 387kts
07-Apr-21 16:15 33.606498 -118.844851 124 14227ft 368kts
07-Apr-21 16:16 33.563752 -118.735962 102 12676ft 360kts
07-Apr-21 16:17 33.546863 -118.619261 101 11019ft 350kts
07-Apr-21 16:18 33.529724 -118.516457 100 10038ft 324kts
07-Apr-21 16:19 33.519784 -118.418334 89 8771ft 308kts
07-Apr-21 16:20 33.521471 -118.319576 71 7380ft 289kts
07-Apr-21 16:21 33.550603 -118.231780 67 5760ft 280kts
07-Apr-21 16:22 33.576519 -118.160725 54 5006ft 272kts
07-Apr-21 16:23 33.618012 -118.087385 54 4995ft 252kts
07-Apr-21 16:24 33.653828 -118.023109 54 4991ft 228kts
07-Apr-21 16:25 33.686848 -117.963661 53 5012ft 211kts
07-Apr-21 16:26 33.731610 -117.923986 22 4567ft 197kts
07-Apr-21 16:27 33.777200 -117.895350 27 3302ft 182kts
07-Apr-21 16:28 33.787277 -117.841689 121 2253ft 179kts
07-Apr-21 16:29 33.747290 -117.823258 195 1605ft 138kts
07-Apr-21 16:30 33.716404 -117.842858 209 894ft 122kts
07-Apr-21 16:31 33.686398 -117.862058 208 209ft 121kts
07-Apr-21 16:32 33.669757 -117.872130 163 70ft 16kts
07-Apr-21 16:33 33.669224 -117.871708 125 70ft 0kts
07-Apr-21 16:34 33.669496 -117.870530 40 70ft 10kts
07-Apr-21 16:35 33.672141 -117.868119 27 70ft 10kts
07-Apr-21 16:36 33.674665 -117.866129 28 70ft 11kts
07-Apr-21 16:37 33.677811 -117.864141 27 70ft 13kts
07-Apr-21 16:38 33.680092 -117.862707 39 70ft 0kts
07-Apr-21 16:39 33.680048 -117.861896 103 70ft 0kts
07-Apr-21 16:40 33.680048 -117.861896 103 70ft 0kts
07-Apr-21 16:41 33.680048 -117.861896 103 70ft 0kts
07-Apr-21 16:42 33.680048 -117.861896 103 70ft 0kts

Navigation Log

Ident Type
Flight plan parsing failed, navigation log unavailable